Woody Creek, Colorado
Current Conditions -  °F | °C
As of 5:53 PM on Tuesday 21 Oct 2014 (Local Time) from KASE Reporting Station
Overcast Overcast  
Wind Chill: 46°   Ceiling: 8000
Heat Index: 48°   Visibility: 10mi
Dew Point: 42°   Wind: 5mph
Humidity: 80%   Direction: 130°SE
Pressure: 30.12"   Gusts: NA
Location:  39.28°N, 106.89°W
Report Text: KASE 212353Z 13004KT 10SM BKN080 OVC100 09/06 A3012 RMK AO2 RAE24 SLP131 P0015 60017 T00890056 10167 20083 50008
Loading
Personal Weather Stations






























Interactive Weather Map
Tropical Storm Tracking
New forecast layout! Learn more

10-Day Weather Forecast

Advertisements
Track Severe Weather on mobile